createdAt,value
2022-08-26T00:00:56.332Z,0.00
2022-08-26T00:03:00.371Z,0.00
2022-08-26T00:04:00.442Z,0.00
2022-08-26T00:06:04.881Z,0.00
2022-08-26T00:07:05.314Z,0.00
2022-08-26T00:09:08.459Z,0.00
2022-08-26T00:10:08.479Z,0.00
2022-08-26T00:12:12.984Z,0.00
2022-08-26T00:13:12.542Z,0.00
2022-08-26T00:15:16.573Z,0.00
2022-08-26T00:16:16.613Z,0.00
2022-08-26T00:18:21.756Z,0.00
2022-08-26T00:19:10.254Z,0.00
2022-08-26T00:20:10.287Z,0.00
2022-08-26T00:21:10.317Z,0.00
2022-08-26T00:22:10.343Z,0.00
2022-08-26T00:23:10.375Z,0.00
2022-08-26T00:24:10.405Z,0.00
2022-08-26T00:25:10.437Z,0.00
2022-08-26T00:26:11.099Z,0.00
2022-08-26T00:27:10.494Z,0.00
2022-08-26T00:28:10.842Z,0.00
2022-08-26T00:29:10.554Z,0.00
2022-08-26T00:30:10.583Z,0.00
2022-08-26T00:31:11.123Z,0.00
2022-08-26T00:32:10.645Z,0.00
2022-08-26T00:33:10.841Z,0.00
2022-08-26T00:34:11.228Z,0.00
2022-08-26T00:35:10.731Z,0.00
2022-08-26T00:36:20.127Z,0.00
2022-08-26T00:37:13.400Z,0.00
2022-08-26T00:38:10.820Z,0.00
2022-08-26T00:39:10.852Z,0.00
2022-08-26T00:40:10.913Z,0.00
2022-08-26T00:41:10.916Z,0.00
2022-08-26T00:42:10.942Z,0.00
2022-08-26T00:43:11.007Z,0.00
2022-08-26T00:44:11.048Z,0.00
2022-08-26T00:45:11.578Z,0.00
2022-08-26T00:46:11.150Z,0.00
2022-08-26T00:47:11.089Z,0.00
2022-08-26T00:48:11.140Z,0.00
2022-08-26T00:49:12.045Z,0.00
2022-08-26T00:50:11.180Z,0.00
2022-08-26T00:51:11.213Z,0.00
2022-08-26T00:52:11.976Z,0.00
2022-08-26T00:53:11.273Z,0.00
2022-08-26T00:54:11.298Z,0.00
2022-08-26T00:55:11.330Z,0.00
2022-08-26T00:56:11.353Z,0.00
2022-08-26T00:57:16.231Z,0.00
2022-08-26T00:58:11.422Z,0.00
2022-08-26T00:59:11.449Z,0.00
2022-08-26T01:00:11.502Z,0.00
2022-08-26T01:01:11.587Z,0.00
2022-08-26T01:02:20.150Z,0.00
2022-08-26T01:03:12.797Z,0.00
2022-08-26T01:04:11.596Z,0.00
2022-08-26T01:05:11.626Z,0.00
2022-08-26T01:06:13.038Z,0.00
2022-08-26T01:07:11.683Z,0.00
2022-08-26T01:08:11.715Z,0.00
2022-08-26T01:09:11.745Z,0.00
2022-08-26T01:10:11.776Z,0.00
2022-08-26T01:11:11.808Z,0.00
2022-08-26T01:12:11.837Z,0.00
2022-08-26T01:13:11.866Z,0.00
2022-08-26T01:14:11.918Z,0.00
2022-08-26T01:15:11.922Z,0.00
2022-08-26T01:16:11.991Z,0.00
2022-08-26T01:17:11.983Z,0.00
2022-08-26T01:18:12.012Z,0.00
2022-08-26T01:19:12.042Z,0.00
2022-08-26T01:20:12.070Z,0.00
2022-08-26T01:21:12.105Z,0.00
2022-08-26T01:22:12.134Z,0.00
2022-08-26T01:23:12.168Z,0.00
2022-08-26T01:24:12.191Z,0.00
2022-08-26T01:25:12.223Z,0.00
2022-08-26T01:26:19.492Z,0.00
2022-08-26T01:27:12.283Z,0.00
2022-08-26T01:28:12.325Z,0.00
2022-08-26T01:29:12.339Z,0.00
2022-08-26T01:30:12.371Z,0.00
2022-08-26T01:31:12.422Z,0.00
2022-08-26T01:32:12.457Z,0.00
2022-08-26T01:33:12.458Z,0.00
2022-08-26T01:34:12.490Z,0.00
2022-08-26T01:35:12.514Z,0.00
2022-08-26T01:36:12.553Z,0.00
2022-08-26T01:37:14.176Z,0.00
2022-08-26T01:38:12.607Z,0.00
2022-08-26T01:39:12.635Z,0.00
2022-08-26T01:40:12.709Z,0.00
2022-08-26T01:41:16.283Z,0.00
2022-08-26T01:42:12.728Z,0.00
2022-08-26T01:43:12.753Z,0.00
2022-08-26T01:44:12.787Z,0.00
2022-08-26T01:45:12.813Z,0.00
2022-08-26T01:46:12.905Z,0.00
2022-08-26T01:47:12.873Z,0.00
2022-08-26T01:48:12.904Z,0.00
2022-08-26T01:49:12.931Z,0.00
2022-08-26T01:50:12.962Z,0.00
2022-08-26T01:51:12.994Z,0.00
2022-08-26T01:52:13.023Z,0.00
2022-08-26T01:53:13.051Z,0.00
2022-08-26T01:54:13.792Z,0.00
2022-08-26T01:55:13.109Z,0.00
2022-08-26T01:56:13.139Z,0.00
2022-08-26T01:57:13.172Z,0.00
2022-08-26T01:58:13.199Z,0.00
2022-08-26T01:59:13.231Z,0.00
2022-08-26T02:00:13.255Z,0.00
2022-08-26T02:01:13.363Z,0.00
2022-08-26T02:02:13.316Z,0.00
2022-08-26T02:03:13.349Z,0.00
2022-08-26T02:04:13.428Z,0.00
2022-08-26T02:05:13.404Z,0.00
2022-08-26T02:06:13.438Z,0.00
2022-08-26T02:07:13.466Z,0.00
2022-08-26T02:08:13.494Z,0.00
2022-08-26T02:09:13.528Z,0.00
2022-08-26T02:10:13.555Z,0.00
2022-08-26T02:11:13.585Z,0.00
2022-08-26T02:12:13.614Z,0.00
2022-08-26T02:13:13.649Z,0.00
2022-08-26T02:14:13.675Z,0.00
2022-08-26T02:15:13.705Z,0.00
2022-08-26T02:16:13.756Z,0.00
2022-08-26T02:17:13.764Z,0.00
2022-08-26T02:18:14.105Z,0.00
2022-08-26T02:19:17.167Z,0.00
2022-08-26T02:20:15.051Z,0.00
2022-08-26T02:21:13.879Z,0.00
2022-08-26T02:22:13.917Z,0.00
2022-08-26T02:23:13.941Z,0.00
2022-08-26T02:24:13.969Z,0.00
2022-08-26T02:25:14.015Z,0.00
2022-08-26T02:26:14.370Z,0.00
2022-08-26T02:27:14.052Z,0.00
2022-08-26T02:28:14.175Z,0.00
2022-08-26T02:29:14.116Z,0.00
2022-08-26T02:30:14.147Z,0.00
2022-08-26T02:31:14.212Z,0.00
2022-08-26T02:32:14.206Z,0.00
2022-08-26T02:33:14.234Z,0.00
2022-08-26T02:34:14.266Z,0.00
2022-08-26T02:35:20.031Z,0.00
2022-08-26T02:36:14.321Z,0.00
2022-08-26T02:37:14.350Z,0.00
2022-08-26T02:38:14.381Z,0.00
2022-08-26T02:39:19.533Z,0.00
2022-08-26T02:40:14.560Z,0.00
2022-08-26T02:41:14.468Z,0.00
2022-08-26T02:42:14.500Z,0.00
2022-08-26T02:43:14.529Z,0.00
2022-08-26T02:44:14.559Z,0.00
2022-08-26T02:45:14.584Z,0.00
2022-08-26T02:46:21.509Z,0.00
2022-08-26T02:47:14.707Z,0.00
2022-08-26T02:48:14.675Z,0.00
2022-08-26T02:49:14.701Z,0.00
2022-08-26T02:50:14.736Z,0.00
2022-08-26T02:51:14.763Z,0.00
2022-08-26T02:52:14.793Z,0.00
2022-08-26T02:53:14.821Z,0.00
2022-08-26T02:54:14.851Z,0.00
2022-08-26T02:55:14.880Z,0.00
2022-08-26T02:56:14.909Z,0.00
2022-08-26T02:57:14.940Z,0.00
2022-08-26T02:58:14.974Z,0.00
2022-08-26T02:59:14.994Z,0.00
2022-08-26T03:00:15.028Z,0.00
2022-08-26T03:01:15.086Z,0.00
2022-08-26T03:02:15.147Z,0.00
2022-08-26T03:03:15.113Z,0.00
2022-08-26T03:04:15.232Z,0.00
2022-08-26T03:05:15.171Z,0.00
2022-08-26T03:06:15.202Z,0.00
2022-08-26T03:07:15.230Z,0.00
2022-08-26T03:08:15.258Z,0.00
2022-08-26T03:09:18.559Z,0.00
2022-08-26T03:10:15.369Z,0.00
2022-08-26T03:11:15.345Z,0.00
2022-08-26T03:12:15.375Z,0.00
2022-08-26T03:13:15.401Z,0.00
2022-08-26T03:14:15.434Z,0.00
2022-08-26T03:15:17.627Z,0.00
2022-08-26T03:16:15.629Z,0.00
2022-08-26T03:17:15.522Z,0.00
2022-08-26T03:18:15.548Z,0.00
2022-08-26T03:19:15.576Z,0.00
2022-08-26T03:20:15.664Z,0.00
2022-08-26T03:21:15.634Z,0.00
2022-08-26T03:22:15.664Z,0.00
2022-08-26T03:23:15.693Z,0.00
2022-08-26T03:24:15.722Z,0.00
2022-08-26T03:25:15.762Z,0.00
2022-08-26T03:26:15.784Z,0.00
2022-08-26T03:27:15.809Z,0.00
2022-08-26T03:28:15.837Z,0.00
2022-08-26T03:29:15.871Z,0.00
2022-08-26T03:30:15.901Z,0.00
2022-08-26T03:31:15.988Z,0.00
2022-08-26T03:32:15.955Z,0.00
2022-08-26T03:33:15.982Z,0.00
2022-08-26T03:34:16.011Z,0.00
2022-08-26T03:35:16.038Z,0.00
2022-08-26T03:36:16.072Z,0.00
2022-08-26T03:37:16.095Z,0.00
2022-08-26T03:38:16.127Z,0.00
2022-08-26T03:39:16.155Z,0.00
2022-08-26T03:40:16.248Z,0.00
2022-08-26T03:41:16.213Z,0.00
2022-08-26T03:42:16.243Z,0.00
2022-08-26T03:43:16.269Z,0.00
2022-08-26T03:44:16.300Z,0.00
2022-08-26T03:45:16.327Z,0.00
2022-08-26T03:46:16.373Z,0.00
2022-08-26T03:47:16.384Z,0.00
2022-08-26T03:48:16.415Z,0.00
2022-08-26T03:49:16.445Z,0.00
2022-08-26T03:50:16.472Z,0.00
2022-08-26T03:51:18.322Z,0.00
2022-08-26T03:52:16.531Z,4.00
2022-08-26T03:53:16.557Z,4.00
2022-08-26T03:54:16.587Z,0.00
2022-08-26T03:55:16.621Z,4.00
2022-08-26T03:56:16.642Z,4.00
2022-08-26T03:57:16.748Z,4.00
2022-08-26T03:58:16.705Z,4.00
2022-08-26T03:59:16.730Z,4.00
2022-08-26T04:00:18.465Z,4.00
2022-08-26T04:01:16.827Z,8.00
2022-08-26T04:02:16.816Z,12.00
2022-08-26T04:03:18.787Z,8.00
2022-08-26T04:04:16.872Z,12.00
2022-08-26T04:05:16.898Z,16.00
2022-08-26T04:06:16.935Z,16.00
2022-08-26T04:07:16.961Z,16.00
2022-08-26T04:08:16.988Z,20.00
2022-08-26T04:09:17.015Z,24.00
2022-08-26T04:10:17.045Z,28.00
2022-08-26T04:11:17.073Z,32.00
2022-08-26T04:12:17.100Z,40.00
2022-08-26T04:13:17.136Z,44.00
2022-08-26T04:14:17.584Z,48.00
2022-08-26T04:15:17.866Z,60.00
2022-08-26T04:16:17.253Z,64.00
2022-08-26T04:17:17.245Z,72.00
2022-08-26T04:18:17.276Z,80.00
2022-08-26T04:19:17.305Z,92.00
2022-08-26T04:20:17.328Z,104.00
2022-08-26T04:21:17.358Z,112.00
2022-08-26T04:22:24.189Z,124.00
2022-08-26T04:23:17.414Z,140.00
2022-08-26T04:24:17.585Z,152.00
2022-08-26T04:25:17.473Z,168.00
2022-08-26T04:26:17.500Z,184.00
2022-08-26T04:27:17.531Z,204.00
2022-08-26T04:28:17.561Z,216.00
2022-08-26T04:29:17.596Z,236.00
2022-08-26T04:30:17.618Z,256.00
2022-08-26T04:31:17.738Z,272.00
2022-08-26T04:32:17.671Z,292.00
2022-08-26T04:33:17.703Z,312.00
2022-08-26T04:34:17.730Z,328.00
2022-08-26T04:35:17.756Z,348.00
2022-08-26T04:36:17.787Z,368.00
2022-08-26T04:37:17.815Z,388.00
2022-08-26T04:38:17.845Z,412.00
2022-08-26T04:39:18.767Z,440.00
2022-08-26T04:40:17.962Z,472.00
2022-08-26T04:41:17.933Z,500.00
2022-08-26T04:42:23.259Z,528.00
2022-08-26T04:43:17.987Z,556.00
2022-08-26T04:44:18.016Z,584.00
2022-08-26T04:45:18.043Z,612.00
2022-08-26T04:46:18.107Z,640.00
2022-08-26T04:47:18.102Z,668.00
2022-08-26T04:48:18.129Z,692.00
2022-08-26T04:49:18.159Z,716.00
2022-08-26T04:50:18.187Z,752.00
2022-08-26T04:51:18.214Z,792.00
2022-08-26T04:52:18.248Z,828.00
2022-08-26T04:53:18.272Z,864.00
2022-08-26T04:54:18.298Z,900.00
2022-08-26T04:55:18.331Z,940.00
2022-08-26T04:56:18.400Z,980.00
2022-08-26T04:57:18.384Z,1020.00
2022-08-26T04:58:18.415Z,1056.00
2022-08-26T04:59:18.460Z,1076.00
2022-08-26T05:00:18.470Z,1092.00
2022-08-26T05:01:18.551Z,1120.00
2022-08-26T05:02:18.526Z,1160.00
2022-08-26T05:03:18.556Z,1216.00
2022-08-26T05:04:18.902Z,1276.00
2022-08-26T05:05:18.613Z,1340.00
2022-08-26T05:06:19.100Z,1412.00
2022-08-26T05:07:18.669Z,1472.00
2022-08-26T05:08:18.696Z,1516.00
2022-08-26T05:09:18.794Z,1540.00
2022-08-26T05:10:18.757Z,1548.00
2022-08-26T05:11:18.786Z,1552.00
2022-08-26T05:12:25.975Z,1552.00
2022-08-26T05:14:23.424Z,1552.00
2022-08-26T05:15:22.857Z,1552.00
2022-08-26T05:17:26.892Z,1596.00
2022-08-26T05:18:26.913Z,1632.00
2022-08-26T05:20:25.147Z,1740.00
2022-08-26T05:21:19.912Z,1848.00
2022-08-26T05:22:19.932Z,1960.00
2022-08-26T05:23:19.963Z,2060.00
2022-08-26T05:24:19.991Z,2148.00
2022-08-26T05:25:20.017Z,2232.00
2022-08-26T05:26:23.017Z,2308.00
2022-08-26T05:27:20.079Z,2392.00
2022-08-26T05:28:20.105Z,2464.00
2022-08-26T05:29:20.134Z,2528.00
2022-08-26T05:30:20.167Z,2580.00
2022-08-26T05:31:20.266Z,2636.00
2022-08-26T05:32:20.222Z,2684.00
2022-08-26T05:33:20.250Z,2740.00
2022-08-26T05:34:20.316Z,2812.00
2022-08-26T05:35:20.315Z,2880.00
2022-08-26T05:36:20.336Z,2944.00
2022-08-26T05:37:20.368Z,2988.00
2022-08-26T05:38:20.398Z,3020.00
2022-08-26T05:39:20.421Z,3068.00
2022-08-26T05:40:20.493Z,3120.00
2022-08-26T05:41:20.477Z,3176.00
2022-08-26T05:42:20.507Z,3236.00
2022-08-26T05:43:20.542Z,3308.00
2022-08-26T05:44:20.568Z,3368.00
2022-08-26T05:45:20.591Z,3420.00
2022-08-26T05:46:20.645Z,3476.00
2022-08-26T05:47:20.646Z,3504.00
2022-08-26T05:48:24.120Z,3540.00
2022-08-26T05:49:20.707Z,3596.00
2022-08-26T05:50:20.738Z,3644.00
2022-08-26T05:51:24.048Z,3680.00
2022-08-26T05:52:20.794Z,3716.00
2022-08-26T05:53:20.825Z,3840.00
2022-08-26T05:54:21.312Z,3752.00
2022-08-26T05:55:20.883Z,3928.00
2022-08-26T05:56:20.910Z,3972.00
2022-08-26T05:57:20.941Z,3924.00
2022-08-26T05:58:20.981Z,3972.00
2022-08-26T05:59:24.063Z,4012.00
2022-08-26T06:00:21.026Z,4072.00
2022-08-26T06:01:21.467Z,4096.00
2022-08-26T06:02:21.135Z,4112.00
2022-08-26T06:03:21.119Z,4060.00
2022-08-26T06:04:21.146Z,4092.00
2022-08-26T06:05:21.174Z,4188.00
2022-08-26T06:06:21.565Z,4256.00
2022-08-26T06:07:21.232Z,4528.00
2022-08-26T06:08:21.262Z,4616.00
2022-08-26T06:09:21.290Z,4500.00
2022-08-26T06:10:32.257Z,4680.00
2022-08-26T06:11:21.349Z,5464.00
2022-08-26T06:12:21.379Z,7288.00
2022-08-26T06:13:21.408Z,7880.00
2022-08-26T06:14:21.439Z,8264.00
2022-08-26T06:15:21.467Z,8524.00
2022-08-26T06:16:21.578Z,8764.00
2022-08-26T06:17:21.523Z,8876.00
2022-08-26T06:18:21.553Z,9116.00
2022-08-26T06:19:21.582Z,9412.00
2022-08-26T06:20:21.613Z,10188.00
2022-08-26T06:21:21.644Z,11308.00
2022-08-26T06:22:23.564Z,11648.00
2022-08-26T06:23:21.700Z,12036.00
2022-08-26T06:24:21.737Z,13276.00
2022-08-26T06:25:21.767Z,13988.00
2022-08-26T06:26:21.801Z,15616.00
2022-08-26T06:27:21.827Z,17952.00
2022-08-26T06:28:21.860Z,19104.00
2022-08-26T06:29:24.340Z,18752.00
2022-08-26T06:30:21.924Z,18368.00
2022-08-26T06:31:22.021Z,18912.00
2022-08-26T06:32:21.991Z,18912.00
2022-08-26T06:33:22.017Z,19840.00
2022-08-26T06:34:22.050Z,20768.00
2022-08-26T06:35:22.076Z,21024.00
2022-08-26T06:36:22.113Z,21152.00
2022-08-26T06:37:22.148Z,21792.00
2022-08-26T06:38:22.179Z,22048.00
2022-08-26T06:39:22.229Z,22016.00
2022-08-26T06:40:22.316Z,22848.00
2022-08-26T06:41:22.275Z,23584.00
2022-08-26T06:42:22.306Z,23712.00
2022-08-26T06:43:22.340Z,23392.00
2022-08-26T06:44:22.374Z,23808.00
2022-08-26T06:45:22.407Z,23776.00
2022-08-26T06:46:22.530Z,22976.00
2022-08-26T06:47:22.505Z,22368.00
2022-08-26T06:48:22.503Z,19968.00
2022-08-26T06:49:26.593Z,19424.00
2022-08-26T06:50:22.574Z,20000.00
2022-08-26T06:51:23.643Z,16864.00
2022-08-26T06:52:24.327Z,17792.00
2022-08-26T06:53:22.670Z,19808.00
2022-08-26T06:54:22.707Z,23424.00
2022-08-26T06:55:22.737Z,21856.00
2022-08-26T06:56:22.771Z,12352.00
2022-08-26T06:57:22.801Z,6500.00
2022-08-26T06:58:22.834Z,6092.00
2022-08-26T06:59:22.867Z,5928.00
2022-08-26T07:00:22.999Z,5880.00
2022-08-26T07:01:22.986Z,5844.00
2022-08-26T07:02:22.967Z,5880.00
2022-08-26T07:03:23.000Z,5920.00
2022-08-26T07:04:23.381Z,5920.00
2022-08-26T07:05:23.065Z,5728.00
2022-08-26T07:06:23.100Z,5856.00
2022-08-26T07:07:23.128Z,5904.00
2022-08-26T07:08:23.162Z,5872.00
2022-08-26T07:09:23.194Z,5848.00
2022-08-26T07:10:23.223Z,5868.00
2022-08-26T07:11:23.257Z,5872.00
2022-08-26T07:12:23.298Z,5836.00
2022-08-26T07:13:30.648Z,5852.00
2022-08-26T07:14:23.358Z,5828.00
2022-08-26T07:15:23.996Z,5800.00
2022-08-26T07:16:23.458Z,5864.00
2022-08-26T07:17:24.947Z,5912.00
2022-08-26T07:18:23.482Z,5908.00
2022-08-26T07:19:29.949Z,5956.00
2022-08-26T07:20:23.572Z,5840.00
2022-08-26T07:21:23.575Z,5876.00
2022-08-26T07:22:23.607Z,5916.00
2022-08-26T07:23:23.643Z,5864.00
2022-08-26T07:24:23.672Z,5772.00
2022-08-26T07:25:23.700Z,5824.00
2022-08-26T07:26:23.737Z,5948.00
2022-08-26T07:27:23.768Z,5852.00
2022-08-26T07:28:23.797Z,5448.00
2022-08-26T07:29:24.458Z,5288.00
2022-08-26T07:30:23.861Z,5284.00
2022-08-26T07:31:23.941Z,5296.00
2022-08-26T07:32:23.920Z,5260.00
2022-08-26T07:33:23.954Z,5120.00
2022-08-26T07:34:23.983Z,5208.00
2022-08-26T07:35:24.013Z,5396.00
2022-08-26T07:36:24.048Z,5640.00
2022-08-26T07:37:24.076Z,6036.00
2022-08-26T07:38:24.109Z,6516.00
2022-08-26T07:39:24.136Z,6860.00
2022-08-26T07:40:24.178Z,7036.00
2022-08-26T07:41:24.247Z,7152.00
2022-08-26T07:42:24.232Z,7208.00
2022-08-26T07:43:24.262Z,7288.00
2022-08-26T07:44:24.293Z,7316.00
2022-08-26T07:45:24.326Z,7224.00
2022-08-26T07:46:27.221Z,6976.00
2022-08-26T07:47:25.840Z,6288.00
2022-08-26T07:48:24.425Z,5832.00
2022-08-26T07:49:24.482Z,5736.00
2022-08-26T07:50:48.852Z,5768.00
2022-08-26T07:51:24.511Z,5668.00
2022-08-26T07:52:27.091Z,5756.00
2022-08-26T07:53:24.573Z,6064.00
2022-08-26T07:54:26.805Z,6460.00
2022-08-26T07:55:24.636Z,6772.00
2022-08-26T07:56:24.669Z,6852.00
2022-08-26T07:57:24.697Z,6900.00
2022-08-26T07:58:24.732Z,6804.00
2022-08-26T07:59:24.760Z,6820.00
2022-08-26T08:00:24.794Z,6716.00
2022-08-26T08:01:24.876Z,6720.00
2022-08-26T08:02:24.867Z,6668.00
2022-08-26T08:03:24.883Z,6628.00
2022-08-26T08:04:26.760Z,6728.00
2022-08-26T08:05:33.353Z,6972.00
2022-08-26T08:06:27.320Z,7172.00
2022-08-26T08:07:35.038Z,7468.00
2022-08-26T08:08:27.646Z,7488.00
2022-08-26T08:09:25.076Z,7080.00
2022-08-26T08:10:25.303Z,6868.00
2022-08-26T08:11:25.136Z,6652.00
2022-08-26T08:12:25.174Z,6732.00
2022-08-26T08:13:25.225Z,7016.00
2022-08-26T08:14:25.233Z,7252.00
2022-08-26T08:15:25.257Z,7468.00
2022-08-26T08:16:25.901Z,7820.00
2022-08-26T08:17:25.325Z,8036.00
2022-08-26T08:18:25.359Z,7744.00
2022-08-26T08:19:28.411Z,7056.00
2022-08-26T08:20:25.418Z,6636.00
2022-08-26T08:21:25.448Z,6600.00
2022-08-26T08:22:25.481Z,6696.00
2022-08-26T08:23:25.520Z,6764.00
2022-08-26T08:24:25.547Z,6856.00
2022-08-26T08:25:25.582Z,7164.00
2022-08-26T08:26:25.611Z,7528.00
2022-08-26T08:27:25.641Z,8040.00
2022-08-26T08:28:25.672Z,8436.00
2022-08-26T08:29:25.705Z,8500.00
2022-08-26T08:30:25.741Z,9172.00
2022-08-26T08:31:52.448Z,9344.00
2022-08-26T08:32:25.793Z,9804.00
2022-08-26T08:33:25.826Z,10056.00
2022-08-26T08:34:26.094Z,10252.00
2022-08-26T08:35:25.892Z,10216.00
2022-08-26T08:36:25.925Z,9728.00
2022-08-26T08:37:25.965Z,9392.00
2022-08-26T08:38:25.992Z,9844.00
2022-08-26T08:39:26.024Z,10492.00
2022-08-26T08:40:26.108Z,10636.00
2022-08-26T08:41:26.083Z,10724.00
2022-08-26T08:42:26.117Z,10788.00
2022-08-26T08:43:26.153Z,10848.00
2022-08-26T08:45:26.216Z,10976.00
2022-08-26T08:46:26.562Z,10724.00
2022-08-26T08:47:26.280Z,10536.00
2022-08-26T08:48:27.312Z,9836.00
2022-08-26T08:49:26.341Z,9020.00
2022-08-26T08:50:26.372Z,8608.00
2022-08-26T08:51:26.406Z,8440.00
2022-08-26T08:52:26.660Z,8272.00
2022-08-26T08:53:26.488Z,8100.00
2022-08-26T08:54:26.505Z,8092.00
2022-08-26T08:55:26.554Z,8308.00
2022-08-26T08:56:26.575Z,8340.00
2022-08-26T08:57:26.604Z,8712.00
2022-08-26T08:58:26.634Z,9328.00
2022-08-26T08:59:26.665Z,9888.00
2022-08-26T09:00:27.693Z,10392.00
2022-08-26T09:01:26.839Z,10704.00
2022-08-26T09:02:26.818Z,10884.00
2022-08-26T09:03:26.802Z,10980.00
2022-08-26T09:04:26.826Z,11068.00
2022-08-26T09:05:26.858Z,11164.00
2022-08-26T09:06:27.768Z,11252.00
2022-08-26T09:07:26.922Z,11288.00
2022-08-26T09:08:26.958Z,11328.00
2022-08-26T09:09:26.989Z,11364.00
2022-08-26T09:10:27.018Z,11112.00
2022-08-26T09:11:27.052Z,10572.00
2022-08-26T09:12:29.780Z,10408.00
2022-08-26T09:13:27.474Z,10340.00
2022-08-26T09:14:27.160Z,10420.00
2022-08-26T09:15:30.207Z,10420.00
2022-08-26T09:16:27.249Z,9896.00
2022-08-26T09:17:27.246Z,10112.00
2022-08-26T09:18:27.280Z,9904.00
2022-08-26T09:19:27.309Z,9752.00
2022-08-26T09:20:27.342Z,9668.00
2022-08-26T09:21:27.416Z,9608.00
2022-08-26T09:22:27.407Z,9600.00
2022-08-26T09:23:27.439Z,9616.00
2022-08-26T09:24:28.614Z,9640.00
2022-08-26T09:25:27.499Z,9544.00
2022-08-26T09:26:30.768Z,9340.00
2022-08-26T09:27:27.564Z,9144.00
2022-08-26T09:28:27.597Z,8940.00
2022-08-26T09:29:27.630Z,8908.00
2022-08-26T09:30:27.681Z,8948.00
2022-08-26T09:31:27.804Z,8836.00
2022-08-26T09:32:27.726Z,8880.00
2022-08-26T09:33:27.762Z,8920.00
2022-08-26T09:34:27.809Z,8900.00
2022-08-26T09:35:27.830Z,8848.00
2022-08-26T09:36:27.859Z,8752.00
2022-08-26T09:37:27.892Z,8508.00
2022-08-26T09:38:28.189Z,8396.00
2022-08-26T09:39:28.000Z,8252.00
2022-08-26T09:40:28.085Z,8176.00
2022-08-26T09:41:28.020Z,8152.00
2022-08-26T09:42:28.053Z,8132.00
2022-08-26T09:43:28.099Z,8136.00
2022-08-26T09:44:28.120Z,8248.00
2022-08-26T09:45:28.151Z,8132.00
2022-08-26T09:46:28.300Z,7948.00
2022-08-26T09:47:28.216Z,7888.00
2022-08-26T09:48:28.247Z,7776.00
2022-08-26T09:49:29.913Z,7716.00
2022-08-26T09:50:29.111Z,7840.00
2022-08-26T09:51:28.364Z,8004.00
2022-08-26T09:52:28.378Z,8060.00
2022-08-26T09:53:30.496Z,7864.00
2022-08-26T09:54:30.133Z,7156.00
2022-08-26T09:55:28.563Z,6984.00
2022-08-26T09:56:28.513Z,7064.00
2022-08-26T09:57:28.539Z,6944.00
2022-08-26T09:58:28.571Z,6912.00
2022-08-26T09:59:28.606Z,6800.00
2022-08-26T10:00:28.640Z,6744.00
2022-08-26T10:01:30.157Z,6932.00
2022-08-26T10:02:28.722Z,7076.00
2022-08-26T10:03:28.730Z,7352.00
2022-08-26T10:04:28.806Z,7548.00
2022-08-26T10:05:28.795Z,7812.00
2022-08-26T10:06:28.847Z,8336.00
2022-08-26T10:07:28.862Z,9188.00
2022-08-26T10:08:28.897Z,10264.00
2022-08-26T10:09:28.928Z,11028.00
2022-08-26T10:10:28.958Z,11300.00
2022-08-26T10:11:28.991Z,10616.00
2022-08-26T10:12:29.021Z,9780.00
2022-08-26T10:13:29.585Z,9448.00
2022-08-26T10:14:29.105Z,9328.00
2022-08-26T10:15:29.120Z,9324.00
2022-08-26T10:16:29.190Z,9636.00
2022-08-26T10:17:30.745Z,10052.00
2022-08-26T10:18:33.650Z,10080.00
2022-08-26T10:19:55.988Z,10100.00
2022-08-26T10:20:29.307Z,9788.00
2022-08-26T10:21:29.343Z,9392.00
2022-08-26T10:22:29.350Z,8880.00
2022-08-26T10:23:29.423Z,8796.00
2022-08-26T10:24:29.412Z,8740.00
2022-08-26T10:25:29.446Z,8712.00
2022-08-26T10:26:29.481Z,8484.00
2022-08-26T10:27:29.513Z,8140.00
2022-08-26T10:28:29.546Z,8360.00
2022-08-26T10:29:29.576Z,8404.00
2022-08-26T10:30:29.612Z,8552.00
2022-08-26T10:31:29.678Z,8556.00
2022-08-26T10:32:29.766Z,8256.00
2022-08-26T10:33:29.710Z,7824.00
2022-08-26T10:34:29.743Z,7044.00
2022-08-26T10:35:29.775Z,6824.00
2022-08-26T10:36:29.810Z,6968.00
2022-08-26T10:37:29.843Z,7460.00
2022-08-26T10:38:29.875Z,8156.00
2022-08-26T10:39:29.907Z,9228.00
2022-08-26T10:40:30.013Z,9896.00
2022-08-26T10:41:29.975Z,9656.00
2022-08-26T10:42:30.013Z,9524.00
2022-08-26T10:43:30.057Z,9240.00
2022-08-26T10:44:30.071Z,9048.00
2022-08-26T10:45:30.208Z,9100.00
2022-08-26T10:46:30.150Z,9136.00
2022-08-26T10:47:30.172Z,9116.00
2022-08-26T10:48:35.682Z,9104.00
2022-08-26T10:49:30.234Z,9212.00
2022-08-26T10:50:30.270Z,9332.00
2022-08-26T10:51:30.310Z,9540.00
2022-08-26T10:52:30.332Z,9644.00
2022-08-26T10:53:32.697Z,9528.00
2022-08-26T10:54:30.402Z,9104.00
2022-08-26T10:55:30.434Z,8616.00
2022-08-26T10:56:30.467Z,8348.00
2022-08-26T10:57:30.501Z,8292.00
2022-08-26T10:58:30.533Z,8084.00
2022-08-26T10:59:30.577Z,7672.00
2022-08-26T11:00:31.307Z,7208.00
2022-08-26T11:01:30.686Z,6744.00
2022-08-26T11:02:30.664Z,6464.00
2022-08-26T11:03:30.699Z,6552.00
2022-08-26T11:04:30.766Z,6776.00
2022-08-26T11:05:30.764Z,7240.00
2022-08-26T11:06:30.795Z,7536.00
2022-08-26T11:07:31.738Z,7388.00
2022-08-26T11:08:30.860Z,7464.00
2022-08-26T11:09:30.892Z,7504.00
2022-08-26T11:10:30.925Z,7548.00
2022-08-26T11:11:30.956Z,7684.00
2022-08-26T11:12:30.990Z,7768.00
2022-08-26T11:13:31.022Z,7556.00
2022-08-26T11:14:34.051Z,7292.00
2022-08-26T11:15:31.092Z,7268.00
2022-08-26T11:16:31.155Z,7392.00
2022-08-26T11:17:31.155Z,7484.00
2022-08-26T11:18:31.188Z,7536.00
2022-08-26T11:19:45.622Z,7628.00
2022-08-26T11:20:41.512Z,7644.00
2022-08-26T11:22:36.197Z,8184.00
2022-08-26T11:23:35.335Z,8584.00
2022-08-26T11:25:39.371Z,8324.00
2022-08-26T11:26:56.339Z,8392.00
2022-08-26T11:28:44.240Z,8552.00
2022-08-26T11:29:43.465Z,8524.00
2022-08-26T11:31:47.539Z,8432.00
2022-08-26T11:32:48.780Z,8260.00
2022-08-26T11:34:52.024Z,8416.00
2022-08-26T11:35:52.278Z,8488.00
2022-08-26T11:37:56.095Z,8636.00
2022-08-26T11:38:55.645Z,8364.00
2022-08-26T11:40:48.610Z,8212.00
2022-08-26T11:41:48.633Z,8144.00
2022-08-26T11:43:53.131Z,8628.00
2022-08-26T11:44:52.693Z,9036.00
2022-08-26T11:46:56.725Z,10760.00
2022-08-26T11:47:56.755Z,10572.00
2022-08-26T11:50:01.259Z,9736.00
2022-08-26T11:51:01.030Z,9152.00
2022-08-26T11:53:06.269Z,8388.00
2022-08-26T11:54:05.088Z,8196.00
2022-08-26T11:56:09.601Z,8452.00
2022-08-26T11:57:09.355Z,8804.00
2022-08-26T11:59:13.195Z,9684.00
2022-08-26T12:00:15.830Z,10520.00
2022-08-26T12:02:18.116Z,9816.00
2022-08-26T12:03:17.339Z,9356.00
2022-08-26T12:05:21.802Z,8992.00
2022-08-26T12:06:21.379Z,8744.00
2022-08-26T12:08:14.543Z,8356.00
2022-08-26T12:09:14.547Z,8208.00
2022-08-26T12:11:19.071Z,7900.00
2022-08-26T12:12:18.608Z,7860.00
2022-08-26T12:14:22.660Z,7824.00
2022-08-26T12:15:22.687Z,7712.00
2022-08-26T12:17:27.219Z,7728.00
2022-08-26T12:18:29.324Z,7964.00
2022-08-26T12:20:19.720Z,8420.00
2022-08-26T12:21:19.740Z,8580.00
2022-08-26T12:24:28.245Z,7776.00
2022-08-26T12:25:27.814Z,7816.00
2022-08-26T12:27:32.318Z,7620.00
2022-08-26T12:28:31.876Z,7656.00
2022-08-26T12:30:26.160Z,7872.00
2022-08-26T12:31:24.893Z,7492.00
2022-08-26T12:33:29.377Z,7296.00
2022-08-26T12:34:28.932Z,6972.00
2022-08-26T12:36:32.974Z,6816.00
2022-08-26T12:37:32.993Z,6788.00
2022-08-26T12:39:37.507Z,6316.00
2022-08-26T12:40:37.118Z,6440.00
2022-08-26T12:41:37.088Z,6408.00
2022-08-26T12:42:37.123Z,6500.00
2022-08-26T12:43:37.159Z,6712.00
2022-08-26T12:44:37.190Z,6432.00
2022-08-26T12:45:37.305Z,6156.00
2022-08-26T12:46:37.254Z,6120.00
2022-08-26T12:47:42.692Z,6024.00
2022-08-26T12:48:37.326Z,5896.00
2022-08-26T12:49:37.358Z,6056.00
2022-08-26T12:50:37.388Z,6184.00
2022-08-26T12:51:37.422Z,6124.00
2022-08-26T12:52:37.455Z,6020.00
2022-08-26T12:53:37.489Z,5948.00
2022-08-26T12:54:37.522Z,5856.00
2022-08-26T12:55:37.556Z,5732.00
2022-08-26T12:56:37.592Z,5760.00
2022-08-26T12:57:37.624Z,5840.00
2022-08-26T12:58:37.657Z,5928.00
2022-08-26T12:59:37.685Z,6020.00
2022-08-26T13:00:37.767Z,6032.00
2022-08-26T13:01:37.939Z,6188.00
2022-08-26T13:02:37.792Z,6380.00
2022-08-26T13:03:37.822Z,7132.00
2022-08-26T13:04:37.870Z,7864.00
2022-08-26T13:05:37.887Z,7416.00
2022-08-26T13:06:37.922Z,6532.00